createdAt,value
2022-09-07T00:02:04.753Z,78.60
2022-09-07T00:04:31.786Z,78.60
2022-09-07T00:06:59.679Z,78.40
2022-09-07T00:09:26.428Z,78.10
2022-09-07T00:11:53.168Z,78.00
2022-09-07T00:14:21.202Z,78.00
2022-09-07T00:16:47.922Z,78.30
2022-09-07T00:19:14.678Z,78.20
2022-09-07T00:21:41.395Z,78.10
2022-09-07T00:24:08.189Z,78.10
2022-09-07T00:26:35.353Z,77.70
2022-09-07T00:29:03.571Z,78.00
2022-09-07T00:31:31.089Z,78.00
2022-09-07T00:34:00.089Z,78.00
2022-09-07T00:36:27.098Z,78.20
2022-09-07T00:38:54.037Z,78.30
2022-09-07T00:41:21.436Z,78.50
2022-09-07T00:43:49.613Z,78.80
2022-09-07T00:46:18.678Z,78.60
2022-09-07T00:48:52.136Z,78.70
2022-09-07T00:51:27.845Z,78.80
2022-09-07T00:53:58.921Z,79.00
2022-09-07T00:56:29.993Z,79.00
2022-09-07T00:58:56.798Z,79.20
2022-09-07T01:01:25.148Z,79.30
2022-09-07T01:03:54.773Z,79.40
2022-09-07T01:06:25.526Z,79.50
2022-09-07T01:08:52.277Z,79.50
2022-09-07T01:11:21.226Z,79.30
2022-09-07T01:13:49.804Z,79.30
2022-09-07T01:16:44.671Z,79.20
2022-09-07T01:19:30.669Z,79.40
2022-09-07T01:22:26.942Z,79.20
2022-09-07T01:25:13.475Z,79.50
2022-09-07T01:28:13.829Z,79.50
2022-09-07T01:30:44.551Z,79.80
2022-09-07T01:33:42.650Z,79.60
2022-09-07T01:36:26.234Z,80.20
2022-09-07T01:39:00.481Z,80.20
2022-09-07T01:41:46.743Z,80.10
2022-09-07T01:44:37.167Z,80.00
2022-09-07T01:47:23.208Z,80.40
2022-09-07T01:50:19.043Z,80.20
2022-09-07T01:52:54.438Z,80.20
2022-09-07T01:55:26.974Z,80.50
2022-09-07T01:58:01.317Z,80.30
2022-09-07T02:00:28.253Z,80.50
2022-09-07T02:02:59.353Z,80.80
2022-09-07T02:05:43.394Z,81.10
2022-09-07T02:08:17.312Z,80.80
2022-09-07T02:10:56.616Z,80.70
2022-09-07T02:13:28.929Z,80.90
2022-09-07T02:16:12.360Z,81.40
2022-09-07T02:18:44.016Z,81.70
2022-09-07T02:21:14.420Z,81.90
2022-09-07T02:23:46.667Z,82.00
2022-09-07T02:26:16.632Z,81.70
2022-09-07T02:28:43.756Z,81.90
2022-09-07T02:31:10.600Z,82.00
2022-09-07T02:33:37.616Z,81.90
2022-09-07T02:36:05.439Z,81.80
2022-09-07T02:38:33.002Z,82.10
2022-09-07T02:41:01.162Z,81.70
2022-09-07T02:43:28.719Z,82.00
2022-09-07T02:46:16.859Z,81.50
2022-09-07T02:49:16.368Z,81.30
2022-09-07T02:52:12.670Z,81.00
2022-09-07T02:54:57.908Z,80.90
2022-09-07T02:57:32.128Z,80.70
2022-09-07T03:00:11.599Z,80.70
2022-09-07T03:03:00.553Z,80.70
2022-09-07T03:05:33.682Z,80.70
2022-09-07T03:08:07.712Z,80.70
2022-09-07T03:10:38.488Z,80.40
2022-09-07T03:13:05.241Z,80.30
2022-09-07T03:15:32.014Z,80.20
2022-09-07T03:17:58.840Z,80.20
2022-09-07T03:20:25.628Z,80.00
2022-09-07T03:22:53.061Z,80.20
2022-09-07T03:25:20.195Z,80.60
2022-09-07T03:27:47.063Z,80.50
2022-09-07T03:30:14.280Z,80.30
2022-09-07T03:32:42.000Z,80.20
2022-09-07T03:35:09.425Z,80.10
2022-09-07T03:37:37.192Z,80.30
2022-09-07T03:40:06.374Z,80.90
2022-09-07T03:42:33.245Z,80.80
2022-09-07T03:45:00.027Z,80.60
2022-09-07T03:47:26.820Z,80.80
2022-09-07T03:49:53.540Z,80.60
2022-09-07T03:52:20.262Z,80.30
2022-09-07T03:54:47.016Z,80.40
2022-09-07T03:57:13.780Z,80.60
2022-09-07T03:59:40.498Z,80.40
2022-09-07T04:02:07.339Z,80.60
2022-09-07T04:04:34.122Z,80.60
2022-09-07T04:07:00.926Z,80.10
2022-09-07T04:09:27.696Z,80.40
2022-09-07T04:11:54.443Z,80.30
2022-09-07T04:14:21.280Z,80.20
2022-09-07T04:16:48.588Z,80.50
2022-09-07T04:19:15.340Z,80.50
2022-09-07T04:21:44.259Z,80.20
2022-09-07T04:24:11.013Z,80.10
2022-09-07T04:26:37.952Z,80.30
2022-09-07T04:29:05.299Z,80.20
2022-09-07T04:31:33.656Z,80.10
2022-09-07T04:34:00.392Z,79.90
2022-09-07T04:36:27.320Z,79.80
2022-09-07T04:39:02.627Z,79.90
2022-09-07T04:41:31.077Z,80.10
2022-09-07T04:44:00.150Z,80.20
2022-09-07T04:46:33.758Z,80.30
2022-09-07T04:49:05.655Z,80.30
2022-09-07T04:51:33.550Z,80.10
2022-09-07T04:54:02.059Z,80.10
2022-09-07T04:56:29.285Z,80.20
2022-09-07T04:58:56.972Z,80.30
2022-09-07T05:01:24.941Z,80.30
2022-09-07T05:03:52.158Z,80.10
2022-09-07T05:06:20.163Z,80.20
2022-09-07T05:08:50.448Z,80.20
2022-09-07T05:11:18.327Z,80.30
2022-09-07T05:13:45.367Z,80.30
2022-09-07T05:16:18.084Z,80.50
2022-09-07T05:18:49.194Z,80.60
2022-09-07T05:21:18.344Z,80.40
2022-09-07T05:23:45.417Z,80.50
2022-09-07T05:26:12.331Z,80.20
2022-09-07T05:28:39.237Z,80.30
2022-09-07T05:31:18.076Z,80.30
2022-09-07T05:36:46.576Z,80.00
2022-09-07T05:39:13.422Z,80.00
2022-09-07T05:41:55.353Z,79.90
2022-09-07T05:44:45.007Z,79.80
2022-09-07T05:47:12.730Z,79.90
2022-09-07T05:49:39.676Z,80.00
2022-09-07T05:52:06.926Z,80.00
2022-09-07T05:54:33.738Z,79.90
2022-09-07T05:57:00.607Z,79.80
2022-09-07T05:59:48.282Z,79.60
2022-09-07T06:02:17.183Z,80.00
2022-09-07T06:04:44.208Z,80.30
2022-09-07T06:07:28.526Z,80.30
2022-09-07T06:12:49.020Z,80.60
2022-09-07T06:15:16.476Z,80.70
2022-09-07T06:17:43.263Z,80.70
2022-09-07T06:20:10.357Z,80.90
2022-09-07T06:22:37.721Z,80.90
2022-09-07T06:25:05.371Z,81.20
2022-09-07T06:27:32.454Z,81.10
2022-09-07T06:29:59.176Z,80.80
2022-09-07T06:35:09.503Z,80.80
2022-09-07T06:37:38.675Z,80.70
2022-09-07T06:40:06.238Z,80.80
2022-09-07T06:42:33.278Z,80.60
2022-09-07T06:45:00.243Z,80.60
2022-09-07T06:47:28.630Z,80.50
2022-09-07T06:49:55.391Z,80.30
2022-09-07T06:52:22.563Z,80.30
2022-09-07T06:55:04.676Z,81.10
2022-09-07T06:57:31.575Z,80.70
2022-09-07T06:59:58.481Z,81.00
2022-09-07T07:02:25.207Z,80.60
2022-09-07T07:04:52.074Z,80.00
2022-09-07T07:07:18.816Z,79.60
2022-09-07T07:09:45.680Z,79.50
2022-09-07T07:12:12.403Z,79.60
2022-09-07T07:14:43.988Z,79.50
2022-09-07T07:17:11.587Z,79.60
2022-09-07T07:19:38.397Z,79.80
2022-09-07T07:22:23.885Z,80.40
2022-09-07T07:24:52.334Z,80.00
2022-09-07T07:27:19.110Z,79.20
2022-09-07T07:29:46.051Z,79.00
2022-09-07T07:32:12.938Z,79.00
2022-09-07T07:34:39.708Z,79.20
2022-09-07T07:37:06.519Z,79.40
2022-09-07T07:42:21.286Z,79.30
2022-09-07T07:44:48.727Z,79.40
2022-09-07T07:47:15.562Z,80.00
2022-09-07T07:49:42.395Z,78.70
2022-09-07T07:54:58.138Z,77.50
2022-09-07T07:57:24.821Z,77.20
2022-09-07T07:59:51.754Z,77.90
2022-09-07T08:02:18.498Z,77.30
2022-09-07T08:04:45.225Z,77.00
2022-09-07T08:07:12.094Z,77.60
2022-09-07T08:09:40.526Z,77.30
2022-09-07T08:12:08.054Z,77.30
2022-09-07T08:14:40.472Z,77.20
2022-09-07T08:17:07.932Z,76.60
2022-09-07T08:19:34.619Z,75.90
2022-09-07T08:22:01.358Z,75.70
2022-09-07T08:24:28.099Z,75.50
2022-09-07T08:26:54.821Z,75.50
2022-09-07T08:29:21.558Z,74.80
2022-09-07T08:31:48.413Z,74.50
2022-09-07T08:34:15.125Z,73.50
2022-09-07T08:36:41.833Z,73.30
2022-09-07T08:39:08.518Z,73.60
2022-09-07T08:41:44.422Z,73.60
2022-09-07T08:44:29.644Z,73.50
2022-09-07T08:46:58.534Z,73.20
2022-09-07T08:49:47.357Z,72.30
2022-09-07T08:52:16.017Z,71.60
2022-09-07T08:54:45.169Z,72.00
2022-09-07T08:57:28.284Z,71.90
2022-09-07T09:00:10.237Z,71.70
2022-09-07T09:02:43.495Z,71.60
2022-09-07T09:05:33.103Z,71.10
2022-09-07T09:08:05.346Z,70.90
2022-09-07T09:10:47.932Z,70.70
2022-09-07T09:13:14.622Z,71.20
2022-09-07T09:15:53.670Z,70.80
2022-09-07T09:18:29.366Z,70.40
2022-09-07T09:20:57.500Z,71.10
2022-09-07T09:23:26.877Z,71.00
2022-09-07T09:25:55.811Z,70.50
2022-09-07T09:28:24.697Z,71.00
2022-09-07T09:30:53.315Z,70.80
2022-09-07T09:33:27.503Z,70.50
2022-09-07T09:35:56.585Z,70.70
2022-09-07T09:38:29.560Z,69.40
2022-09-07T09:40:58.447Z,69.30
2022-09-07T09:43:28.064Z,67.90
2022-09-07T09:46:13.019Z,68.00
2022-09-07T09:48:41.509Z,67.50
2022-09-07T09:54:15.125Z,66.40
2022-09-07T09:56:44.304Z,67.00
2022-09-07T10:05:33.872Z,65.80
2022-09-07T10:08:00.657Z,65.70
2022-09-07T10:10:28.658Z,64.20
2022-09-07T10:12:55.910Z,64.40
2022-09-07T10:15:40.592Z,64.10
2022-09-07T10:18:18.814Z,63.30
2022-09-07T10:20:45.713Z,62.80
2022-09-07T10:23:22.131Z,63.10
2022-09-07T10:25:49.085Z,63.10
2022-09-07T10:28:21.381Z,62.00
2022-09-07T10:30:54.176Z,61.70
2022-09-07T10:33:27.553Z,61.50
2022-09-07T10:36:02.778Z,61.50
2022-09-07T10:38:31.698Z,59.70
2022-09-07T10:41:09.728Z,60.20
2022-09-07T10:43:45.835Z,59.60
2022-09-07T10:47:00.132Z,59.90
2022-09-07T10:53:39.511Z,59.30
2022-09-07T10:56:38.786Z,59.60
2022-09-07T10:59:18.479Z,59.90
2022-09-07T11:02:12.549Z,58.90
2022-09-07T11:05:02.929Z,59.10
2022-09-07T11:07:48.397Z,60.20
2022-09-07T11:10:43.092Z,59.50
2022-09-07T11:13:13.838Z,59.00
2022-09-07T11:15:45.838Z,59.40
2022-09-07T11:18:23.837Z,59.20
2022-09-07T11:20:55.755Z,58.90
2022-09-07T11:23:44.995Z,59.80
2022-09-07T11:26:25.597Z,58.80
2022-09-07T11:31:52.239Z,58.20
2022-09-07T11:34:29.116Z,57.40
2022-09-07T11:37:01.088Z,57.50
2022-09-07T11:39:35.459Z,56.40
2022-09-07T11:45:25.234Z,55.20
2022-09-07T11:48:00.020Z,55.20
2022-09-07T11:50:29.996Z,56.10
2022-09-07T11:53:32.916Z,55.90
2022-09-07T11:56:04.694Z,56.00
2022-09-07T11:59:08.638Z,54.40
2022-09-07T12:01:57.310Z,54.70
2022-09-07T12:04:33.510Z,54.50
2022-09-07T12:07:19.702Z,54.80
2022-09-07T12:09:52.889Z,54.80
2022-09-07T12:12:48.471Z,54.30
2022-09-07T12:15:33.829Z,54.70
2022-09-07T12:18:12.196Z,53.40
2022-09-07T12:20:47.426Z,53.30
2022-09-07T12:23:17.133Z,54.20
2022-09-07T12:25:46.006Z,54.90
2022-09-07T12:28:23.958Z,53.70
2022-09-07T12:31:05.818Z,53.90
2022-09-07T12:33:32.490Z,53.80
2022-09-07T12:36:00.876Z,52.80
2022-09-07T12:38:30.688Z,53.20
2022-09-07T12:41:18.302Z,53.10
2022-09-07T12:43:48.775Z,53.70
2022-09-07T12:46:34.886Z,51.40
2022-09-07T12:49:29.070Z,52.30
2022-09-07T12:52:14.875Z,51.50
2022-09-07T12:55:28.547Z,50.20
2022-09-07T12:58:14.299Z,51.10
2022-09-07T13:00:50.031Z,49.70
2022-09-07T13:03:51.770Z,49.50
2022-09-07T13:07:03.115Z,48.70
2022-09-07T13:09:41.040Z,47.00
2022-09-07T13:15:41.518Z,48.40
2022-09-07T13:18:27.223Z,49.20
2022-09-07T13:21:08.979Z,47.70
2022-09-07T13:23:40.142Z,46.40
2022-09-07T13:26:09.393Z,47.00
2022-09-07T13:28:51.264Z,47.20
2022-09-07T13:31:42.200Z,45.70
2022-09-07T13:34:33.971Z,45.60
2022-09-07T13:37:05.805Z,45.60
2022-09-07T13:39:42.350Z,45.00
2022-09-07T13:42:16.717Z,43.90
2022-09-07T13:44:53.751Z,43.60
2022-09-07T13:47:30.776Z,44.00
2022-09-07T13:50:19.321Z,44.70
2022-09-07T13:53:04.855Z,44.80
2022-09-07T13:55:38.509Z,44.20
2022-09-07T13:58:34.786Z,41.80
2022-09-07T14:01:08.235Z,42.10
2022-09-07T14:03:43.556Z,43.00
2022-09-07T14:06:22.437Z,43.60
2022-09-07T14:08:51.687Z,44.50
2022-09-07T14:11:19.547Z,44.00
2022-09-07T14:13:46.346Z,44.50
2022-09-07T14:16:13.294Z,44.10
2022-09-07T14:18:40.295Z,44.50
2022-09-07T14:21:09.543Z,44.60
2022-09-07T14:23:36.760Z,44.50
2022-09-07T14:26:16.725Z,44.90
2022-09-07T14:28:46.017Z,44.80
2022-09-07T14:31:15.276Z,44.70
2022-09-07T14:33:54.238Z,44.50
2022-09-07T14:36:48.240Z,44.20
2022-09-07T14:39:17.244Z,44.80
2022-09-07T14:41:44.519Z,44.40
2022-09-07T14:44:29.860Z,44.60
2022-09-07T14:46:59.146Z,44.20
2022-09-07T14:49:25.889Z,44.70
2022-09-07T14:51:54.602Z,45.00
2022-09-07T14:54:32.448Z,45.10
2022-09-07T14:57:24.171Z,44.60
2022-09-07T14:59:53.632Z,45.40
2022-09-07T15:02:28.545Z,44.40
2022-09-07T15:05:14.347Z,44.00
2022-09-07T15:07:45.866Z,43.30
2022-09-07T15:10:14.274Z,43.40
2022-09-07T15:12:43.091Z,43.60
2022-09-07T15:15:30.172Z,44.10
2022-09-07T15:18:04.514Z,44.30
2022-09-07T15:20:36.828Z,44.60
2022-09-07T15:23:13.308Z,44.70
2022-09-07T15:25:44.341Z,45.20
2022-09-07T15:34:04.988Z,45.70
2022-09-07T15:36:32.261Z,46.00
2022-09-07T15:38:59.899Z,45.80
2022-09-07T15:41:27.809Z,45.80
2022-09-07T15:43:55.506Z,44.80
2022-09-07T15:46:24.884Z,45.60
2022-09-07T15:48:54.388Z,45.10
2022-09-07T15:54:13.832Z,46.50
2022-09-07T15:56:42.676Z,45.60
2022-09-07T15:59:10.319Z,45.70
2022-09-07T16:01:54.719Z,46.70
2022-09-07T16:04:24.090Z,45.70
2022-09-07T16:06:51.085Z,45.90
2022-09-07T16:09:21.632Z,45.30
2022-09-07T16:11:50.123Z,45.30
2022-09-07T16:14:17.723Z,45.60
2022-09-07T16:19:34.974Z,45.50
2022-09-07T16:22:03.092Z,45.70
2022-09-07T16:24:30.040Z,45.10
2022-09-07T16:26:56.809Z,45.30
2022-09-07T16:29:23.468Z,45.60
2022-09-07T16:34:37.250Z,46.30
2022-09-07T16:37:04.091Z,47.20
2022-09-07T16:39:31.961Z,47.60
2022-09-07T16:42:00.033Z,47.10
2022-09-07T16:44:26.862Z,47.90
2022-09-07T16:46:54.974Z,46.90
2022-09-07T16:49:21.991Z,47.10
2022-09-07T16:51:49.820Z,46.60
2022-09-07T16:54:17.598Z,46.80
2022-09-07T16:56:44.319Z,47.10
2022-09-07T16:59:16.544Z,47.60
2022-09-07T17:01:43.281Z,47.90
2022-09-07T17:04:11.430Z,47.30
2022-09-07T17:06:39.819Z,47.70
2022-09-07T17:09:07.245Z,47.50
2022-09-07T17:11:35.420Z,46.90
2022-09-07T17:14:02.453Z,47.50
2022-09-07T17:16:37.392Z,48.00
2022-09-07T17:21:53.562Z,48.00
2022-09-07T17:24:20.593Z,48.70
2022-09-07T17:26:48.440Z,49.00
2022-09-07T17:29:15.128Z,48.90
2022-09-07T17:34:30.188Z,49.30
2022-09-07T17:36:57.138Z,49.40
2022-09-07T17:39:23.887Z,49.30
2022-09-07T17:41:54.441Z,49.50
2022-09-07T17:44:22.469Z,49.50
2022-09-07T17:46:49.306Z,49.60
2022-09-07T17:49:19.097Z,49.50
2022-09-07T17:51:46.022Z,49.70
2022-09-07T17:54:17.874Z,50.30
2022-09-07T17:56:45.280Z,50.60
2022-09-07T18:01:58.891Z,51.50
2022-09-07T18:04:25.844Z,52.10
2022-09-07T18:06:54.131Z,52.80
2022-09-07T18:09:22.133Z,53.10
2022-09-07T18:11:50.110Z,53.30
2022-09-07T18:14:18.043Z,53.70
2022-09-07T18:16:46.429Z,53.90
2022-09-07T18:19:13.491Z,54.40
2022-09-07T18:21:42.902Z,54.80
2022-09-07T18:24:18.512Z,55.40
2022-09-07T18:26:50.182Z,55.50
2022-09-07T18:29:28.706Z,55.70
2022-09-07T18:31:57.186Z,55.90
2022-09-07T18:34:24.093Z,55.90
2022-09-07T18:36:51.217Z,55.90
2022-09-07T18:39:18.161Z,56.10
